Time;durP1;ratioP1;P1;durP2;ratioP2;P2;SDS_P1;SDS_P2;PMS_P1;PMS_P2;Temp;Humidity;BMP_temperature;BMP_pressure;BME280_temperature;BME280_humidity;BME280_pressure;Samples;Min_cycle;Max_cycle;Signal;HPM_P1;HPM_P2
2023/03/24 00:00:17;;;;;;;7.97;3.75;;;11.40;99.90;;;;;;5025586;28;20482;-52
2023/03/24 00:02:45;;;;;;;6.45;3.78;;;11.40;99.90;;;;;;5026292;28;20544;-50
2023/03/24 00:05:15;;;;;;;6.75;3.70;;;11.50;99.90;;;;;;5026254;28;20454;-49
2023/03/24 00:07:42;;;;;;;8.05;3.72;;;11.50;99.90;;;;;;5019651;28;20499;-51
2023/03/24 00:10:13;;;;;;;8.45;3.75;;;11.40;99.90;;;;;;5023306;28;20064;-53
2023/03/24 00:12:41;;;;;;;10.10;4.57;;;11.40;99.90;;;;;;5025062;28;20045;-51
2023/03/24 00:15:11;;;;;;;6.25;3.88;;;11.50;99.90;;;;;;5024738;28;20057;-51
2023/03/24 00:17:38;;;;;;;11.60;4.32;;;11.40;99.90;;;;;;5024138;28;20049;-50
2023/03/24 00:20:15;;;;;;;7.05;3.80;;;11.40;99.90;;;;;;5021692;28;20095;-49
2023/03/24 00:22:49;;;;;;;7.75;3.95;;;11.30;99.90;;;;;;5042168;28;20121;-52
2023/03/24 00:25:22;;;;;;;8.85;4.10;;;11.40;99.90;;;;;;5030223;28;20128;-52
2023/03/24 00:27:48;;;;;;;8.55;4.10;;;11.40;99.90;;;;;;5030608;28;20514;-49
2023/03/24 00:30:15;;;;;;;7.32;4.32;;;11.40;99.90;;;;;;5032651;28;20046;-49
2023/03/24 00:32:41;;;;;;;7.65;4.22;;;11.40;99.90;;;;;;5029365;28;20050;-50
2023/03/24 00:35:11;;;;;;;8.63;4.10;;;11.40;99.90;;;;;;5030198;28;20043;-50
2023/03/24 00:37:38;;;;;;;9.13;4.40;;;11.40;99.90;;;;;;5024849;28;20133;-50
2023/03/24 00:40:11;;;;;;;6.90;4.72;;;11.30;99.90;;;;;;5046867;28;20077;-50
2023/03/24 00:42:38;;;;;;;6.03;3.80;;;11.30;99.90;;;;;;5016675;28;20464;-49
2023/03/24 00:45:07;;;;;;;7.70;4.07;;;11.40;99.90;;;;;;5040509;28;20566;-51
2023/03/24 00:47:36;;;;;;;8.43;3.58;;;11.40;99.90;;;;;;5036284;28;20054;-50
2023/03/24 00:50:08;;;;;;;6.93;3.65;;;11.20;99.90;;;;;;5035703;28;20034;-49
2023/03/24 00:52:34;;;;;;;8.50;4.00;;;11.20;99.90;;;;;;5034556;28;20398;-50
2023/03/24 00:55:02;;;;;;;8.25;3.53;;;11.20;99.90;;;;;;5027559;28;20045;-49
2023/03/24 00:57:33;;;;;;;6.80;3.83;;;11.20;99.90;;;;;;5026539;28;20053;-50
2023/03/24 01:00:08;;;;;;;6.15;3.42;;;11.20;99.90;;;;;;5030178;28;20069;-52
2023/03/24 01:02:33;;;;;;;6.07;3.65;;;11.20;99.90;;;;;;5025674;28;20046;-50
2023/03/24 01:05:01;;;;;;;5.97;3.42;;;11.20;99.90;;;;;;5028161;28;20041;-53
2023/03/24 01:07:28;;;;;;;5.70;3.25;;;11.20;99.90;;;;;;5026842;28;20131;-51
2023/03/24 01:09:56;;;;;;;5.53;3.33;;;11.20;99.90;;;;;;5030167;28;20045;-53
2023/03/24 01:12:42;;;;;;;3.92;3.20;;;11.20;99.90;;;;;;5027353;28;20069;-50
2023/03/24 01:15:13;;;;;;;5.82;3.55;;;11.30;99.90;;;;;;5025967;28;20046;-49
2023/03/24 01:17:39;;;;;;;7.05;3.90;;;11.20;99.90;;;;;;5026930;28;20516;-53
2023/03/24 01:20:07;;;;;;;7.20;3.95;;;11.30;99.90;;;;;;5029738;28;20076;-50
2023/03/24 01:22:36;;;;;;;6.63;3.90;;;11.30;99.90;;;;;;5019813;28;20057;-49
2023/03/24 01:25:03;;;;;;;8.25;3.58;;;11.20;99.90;;;;;;5025510;28;20486;-53
2023/03/24 01:27:29;;;;;;;5.80;3.20;;;11.30;99.90;;;;;;5030294;28;20083;-51
2023/03/24 01:30:03;;;;;;;4.60;3.35;;;11.30;99.90;;;;;;5028148;28;20055;-53
2023/03/24 01:32:29;;;;;;;5.90;3.72;;;11.30;99.90;;;;;;5026442;28;20427;-52
2023/03/24 01:34:55;;;;;;;5.97;3.85;;;11.30;99.90;;;;;;5026468;28;20060;-51
2023/03/24 01:37:22;;;;;;;6.22;4.20;;;11.30;99.90;;;;;;5025732;28;20124;-52
2023/03/24 01:39:49;;;;;;;5.27;3.97;;;11.40;99.90;;;;;;5028238;28;20053;-49
2023/03/24 01:42:18;;;;;;;5.60;3.63;;;11.40;99.90;;;;;;5025831;28;20048;-54
2023/03/24 01:44:48;;;;;;;6.85;4.18;;;11.30;99.90;;;;;;5021964;28;21667;-52
2023/03/24 01:47:14;;;;;;;7.25;4.30;;;11.40;99.90;;;;;;5025362;28;20052;-52
2023/03/24 01:49:49;;;;;;;6.47;4.40;;;11.30;99.90;;;;;;5026970;28;20045;-50
2023/03/24 01:52:17;;;;;;;6.72;4.30;;;;;;;;;;5027686;28;20045;-51
2023/03/24 01:54:47;;;;;;;6.68;4.03;;;11.40;99.90;;;;;;5029818;28;20040;-50
2023/03/24 01:57:25;;;;;;;6.07;4.00;;;11.40;99.90;;;;;;5029366;28;20030;-52
2023/03/24 01:59:58;;;;;;;7.72;4.07;;;11.40;99.90;;;;;;5027756;28;20497;-52
2023/03/24 02:02:25;;;;;;;6.25;3.92;;;11.40;99.90;;;;;;5026753;28;20041;-55
2023/03/24 02:04:57;;;;;;;6.20;3.95;;;11.40;99.90;;;;;;5025074;28;20088;-55
2023/03/24 02:07:32;;;;;;;6.15;3.90;;;11.40;99.90;;;;;;5025871;28;20040;-54
2023/03/24 02:09:59;;;;;;;5.70;4.10;;;11.40;99.90;;;;;;5012615;28;20375;-53
2023/03/24 02:12:25;;;;;;;6.38;4.13;;;11.40;99.90;;;;;;5024978;28;20056;-53
2023/03/24 02:14:52;;;;;;;7.32;4.15;;;11.40;99.90;;;;;;5025870;28;20049;-52
2023/03/24 02:17:45;;;;;;;5.55;3.88;;;11.40;99.90;;;;;;5023452;28;20103;-51
2023/03/24 02:21:01;;;;;;;5.95;3.97;;;11.50;99.90;;;;;;5026648;28;20609;-52
2023/03/24 02:23:54;;;;;;;4.90;3.63;;;11.50;99.90;;;;;;5005900;28;20057;-50
2023/03/24 02:26:23;;;;;;;6.07;3.97;;;11.50;99.90;;;;;;4995310;28;20141;-53
2023/03/24 02:29:03;;;;;;;7.68;4.03;;;11.50;99.90;;;;;;4996497;28;20081;-50
2023/03/24 02:31:56;;;;;;;4.18;3.70;;;11.50;99.90;;;;;;5000382;28;20400;-50
2023/03/24 02:34:55;;;;;;;5.85;4.05;;;11.50;99.90;;;;;;5001183;28;20129;-50
2023/03/24 02:37:48;;;;;;;5.90;3.90;;;11.50;99.90;;;;;;5007969;28;20048;-53
2023/03/24 02:40:19;;;;;;;4.35;3.60;;;11.50;99.90;;;;;;4993562;28;20516;-50
2023/03/24 02:43:03;;;;;;;5.30;3.90;;;11.50;99.90;;;;;;4995607;28;20121;-50
2023/03/24 02:45:53;;;;;;;6.90;4.40;;;11.60;99.90;;;;;;4992585;28;20082;-52
2023/03/24 02:48:20;;;;;;;6.45;4.05;;;11.60;99.90;;;;;;5008245;28;20056;-50
2023/03/24 02:51:00;;;;;;;6.53;4.07;;;11.60;99.90;;;;;;5003165;28;20097;-50
2023/03/24 02:53:25;;;;;;;4.10;3.60;;;11.60;99.90;;;;;;4979848;28;20068;-51
2023/03/24 02:56:11;;;;;;;7.38;3.92;;;11.60;99.90;;;;;;5000107;28;20034;-50
2023/03/24 02:58:40;;;;;;;6.53;3.75;;;11.60;99.90;;;;;;5014014;28;20053;-51
2023/03/24 03:01:40;;;;;;;6.38;4.25;;;11.60;99.90;;;;;;5024242;28;20056;-53
2023/03/24 03:04:18;;;;;;;5.18;3.90;;;11.60;99.90;;;;;;4912636;29;20142;-52
2023/03/24 03:06:51;;;;;;;4.30;3.80;;;11.60;99.90;;;;;;4927798;29;20051;-51
2023/03/24 03:09:19;;;;;;;5.57;3.90;;;11.60;99.90;;;;;;4928011;29;20083;-55
2023/03/24 03:11:48;;;;;;;5.32;3.85;;;11.60;99.90;;;;;;4928483;29;20142;-50
2023/03/24 03:14:19;;;;;;;5.30;3.70;;;11.60;99.90;;;;;;4928237;29;20095;-52
2023/03/24 03:16:52;;;;;;;5.50;3.65;;;11.60;99.90;;;;;;4909912;29;20151;-50
2023/03/24 03:19:26;;;;;;;3.97;3.58;;;11.60;99.90;;;;;;4928209;29;20059;-52
2023/03/24 03:21:53;;;;;;;4.40;3.42;;;11.60;99.90;;;;;;4926658;29;20126;-50
2023/03/24 03:24:33;;;;;;;4.38;3.40;;;11.70;99.90;;;;;;4911110;29;20091;-50
2023/03/24 03:27:13;;;;;;;4.30;3.65;;;11.60;99.90;;;;;;4926712;29;20063;-53
2023/03/24 03:29:43;;;;;;;4.13;3.60;;;11.70;99.90;;;;;;4933091;29;20118;-51
2023/03/24 03:32:20;;;;;;;3.95;3.42;;;11.70;99.90;;;;;;4932386;29;20044;-49
2023/03/24 03:35:08;;;;;;;4.88;3.60;;;11.70;99.90;;;;;;4926934;29;20047;-51
2023/03/24 03:37:55;;;;;;;4.80;4.00;;;11.70;99.90;;;;;;4926900;29;20051;-51
2023/03/24 03:40:29;;;;;;;5.32;3.45;;;11.60;99.90;;;;;;4981606;28;20064;-51
2023/03/24 03:42:55;;;;;;;5.18;3.55;;;11.60;99.90;;;;;;5019319;28;20045;-50
2023/03/24 03:45:21;;;;;;;3.88;3.47;;;11.70;99.90;;;;;;5020639;28;20056;-52
2023/03/24 03:47:47;;;;;;;5.00;3.90;;;11.70;99.90;;;;;;5022997;28;20550;-55
2023/03/24 03:50:13;;;;;;;6.45;3.60;;;11.70;99.90;;;;;;5023344;28;20088;-51
2023/03/24 03:52:40;;;;;;;5.40;4.18;;;11.70;99.90;;;;;;5025967;28;20502;-54
2023/03/24 03:55:07;;;;;;;5.20;3.80;;;11.60;99.90;;;;;;5022710;28;20525;-54
2023/03/24 03:57:35;;;;;;;6.38;3.65;;;11.70;99.90;;;;;;5023380;28;20139;-54
2023/03/24 04:00:06;;;;;;;3.08;2.55;;;11.70;99.90;;;;;;5029256;28;20266;-52
2023/03/24 04:02:51;;;;;;;3.33;2.42;;;11.60;99.90;;;;;;5020401;28;20038;-51
2023/03/24 04:05:35;;;;;;;2.97;2.42;;;11.60;99.90;;;;;;5023529;28;20072;-50
2023/03/24 04:08:25;;;;;;;2.65;2.30;;;11.50;99.90;;;;;;5022236;28;20430;-52
2023/03/24 04:11:16;;;;;;;2.65;2.15;;;11.50;99.90;;;;;;5020762;28;20053;-50
2023/03/24 04:14:00;;;;;;;3.58;1.77;;;11.40;99.90;;;;;;5022666;28;20033;-50
2023/03/24 04:16:40;;;;;;;3.45;1.70;;;11.40;99.90;;;;;;5021228;28;21765;-52
2023/03/24 04:19:21;;;;;;;4.97;1.73;;;11.20;99.90;;;;;;5023611;28;20041;-50
2023/03/24 04:22:01;;;;;;;3.60;1.50;;;11.20;99.90;;;;;;5023585;28;20049;-50
2023/03/24 04:24:53;;;;;;;5.18;1.77;;;11.10;99.90;;;;;;5040727;28;20103;-51
2023/03/24 04:27:38;;;;;;;4.82;1.90;;;11.00;99.90;;;;;;5028361;28;20152;-50
2023/03/24 04:30:13;;;;;;;5.97;2.00;;;10.90;99.90;;;;;;5022665;28;20184;-49
2023/03/24 04:32:48;;;;;;;7.32;1.85;;;10.90;99.90;;;;;;5016526;28;20046;-50
2023/03/24 04:35:35;;;;;;;3.92;1.70;;;10.90;99.90;;;;;;5031669;28;20396;-51
2023/03/24 04:38:04;;;;;;;4.40;1.45;;;10.80;99.90;;;;;;5010739;28;20091;-51
2023/03/24 04:40:33;;;;;;;4.97;1.65;;;10.70;99.90;;;;;;5017169;28;20077;-49
2023/03/24 04:43:06;;;;;;;5.03;1.85;;;10.60;99.90;;;;;;5016714;28;20123;-50
2023/03/24 04:45:34;;;;;;;6.78;1.85;;;10.70;99.90;;;;;;5020879;28;20052;-49
2023/03/24 04:48:03;;;;;;;5.18;1.80;;;10.70;99.90;;;;;;5018470;28;20482;-49
2023/03/24 04:50:36;;;;;;;6.93;1.83;;;10.60;99.90;;;;;;5020288;28;20332;-50
2023/03/24 04:53:03;;;;;;;9.85;1.88;;;10.50;99.90;;;;;;5019224;28;20038;-49
2023/03/24 04:55:43;;;;;;;6.77;1.80;;;10.40;99.90;;;;;;5019043;28;20046;-49
2023/03/24 04:58:09;;;;;;;7.50;1.92;;;10.40;99.90;;;;;;5022204;28;20043;-51
2023/03/24 05:00:35;;;;;;;5.68;2.00;;;10.40;99.90;;;;;;5015328;28;20137;-50
2023/03/24 05:03:02;;;;;;;5.95;1.95;;;10.20;99.90;;;;;;5014069;28;20045;-50
2023/03/24 05:05:27;;;;;;;5.43;1.80;;;10.30;99.90;;;;;;5018920;28;20069;-50
2023/03/24 05:07:55;;;;;;;6.70;2.15;;;9.50;99.90;;;;;;5015816;28;20065;-50
2023/03/24 05:10:21;;;;;;;;;;;10.20;99.90;;;;;;5018392;28;20076;-54
2023/03/24 05:12:47;;;;;;;6.40;1.95;;;10.10;99.90;;;;;;5015233;28;19944;-50
2023/03/24 05:15:12;;;;;;;7.20;2.22;;;10.10;99.90;;;;;;5019685;28;20034;-51
2023/03/24 05:17:38;;;;;;;7.78;2.00;;;10.10;99.90;;;;;;5016372;28;20425;-51
2023/03/24 05:20:09;;;;;;;8.75;2.10;;;;;;;;;;5020502;28;20041;-50
2023/03/24 05:22:36;;;;;;;9.77;2.28;;;10.00;99.90;;;;;;5020875;28;20049;-49
2023/03/24 05:25:02;;;;;;;9.55;2.35;;;;;;;;;;5016882;28;20092;-53
2023/03/24 05:27:27;;;;;;;8.52;2.30;;;;;;;;;;5025329;28;20064;-52
2023/03/24 05:29:53;;;;;;;7.05;2.60;;;9.80;99.90;;;;;;5024713;28;20042;-51
2023/03/24 05:32:19;;;;;;;8.95;1.80;;;9.80;99.90;;;;;;5031993;28;20053;-53
2023/03/24 05:34:45;;;;;;;8.10;2.35;;;9.80;99.90;;;;;;5021844;28;20049;-51
2023/03/24 05:37:11;;;;;;;6.80;2.50;;;9.90;99.90;;;;;;5026087;28;20037;-51
2023/03/24 05:39:37;;;;;;;10.90;2.58;;;9.90;99.90;;;;;;5020728;28;20068;-51
2023/03/24 05:42:03;;;;;;;9.15;2.40;;;9.90;99.90;;;;;;5026530;28;20372;-51
2023/03/24 05:44:28;;;;;;;6.82;2.20;;;9.90;99.90;;;;;;5020381;28;20111;-53
2023/03/24 05:46:54;;;;;;;9.25;2.75;;;9.90;99.90;;;;;;5026559;28;20360;-54
2023/03/24 05:49:20;;;;;;;9.10;2.38;;;9.80;99.90;;;;;;5020095;28;20081;-51
2023/03/24 05:51:45;;;;;;;9.75;2.22;;;9.80;99.90;;;;;;5031433;28;20041;-51
2023/03/24 05:54:11;;;;;;;4.43;2.00;;;9.70;99.90;;;;;;5023133;28;20502;-50
2023/03/24 05:56:36;;;;;;;7.75;2.25;;;9.60;99.90;;;;;;5023191;28;20843;-50
2023/03/24 05:59:03;;;;;;;8.98;2.22;;;9.60;99.90;;;;;;5023745;28;20088;-51
2023/03/24 06:01:29;;;;;;;7.60;2.50;;;9.50;99.90;;;;;;5024306;28;20501;-51
2023/03/24 06:03:55;;;;;;;6.18;1.95;;;9.50;99.90;;;;;;5018395;28;20602;-51
2023/03/24 06:06:21;;;;;;;7.28;2.13;;;9.40;99.90;;;;;;5018695;28;20048;-52
2023/03/24 06:08:48;;;;;;;8.05;2.30;;;9.40;99.90;;;;;;5023942;28;21495;-51
2023/03/24 06:11:14;;;;;;;8.52;2.30;;;9.60;99.90;;;;;;5026651;28;20076;-50
2023/03/24 06:13:40;;;;;;;10.40;2.35;;;9.70;99.90;;;;;;5025209;28;20076;-49
2023/03/24 06:16:06;;;;;;;6.18;2.35;;;9.70;99.90;;;;;;5023380;28;20048;-53
2023/03/24 06:18:32;;;;;;;7.30;2.40;;;9.80;99.90;;;;;;5024659;28;20124;-49
2023/03/24 06:20:58;;;;;;;6.00;2.05;;;9.80;99.90;;;;;;5017283;28;20128;-49
2023/03/24 06:23:26;;;;;;;8.30;2.58;;;10.10;99.90;;;;;;5031448;28;20033;-49
2023/03/24 06:25:57;;;;;;;7.25;2.13;;;10.10;99.90;;;;;;5026120;28;20047;-50
2023/03/24 06:28:29;;;;;;;12.35;2.67;;;10.10;99.90;;;;;;5029944;28;20097;-50
2023/03/24 06:30:57;;;;;;;6.88;2.13;;;10.20;99.90;;;;;;5024956;28;20443;-51
2023/03/24 06:33:24;;;;;;;7.93;2.28;;;10.20;99.90;;;;;;5024928;28;20038;-52
2023/03/24 06:35:51;;;;;;;10.77;2.20;;;10.20;99.90;;;;;;5024293;28;20045;-51
2023/03/24 06:38:17;;;;;;;7.85;2.35;;;10.20;99.90;;;;;;5024159;28;20034;-54
2023/03/24 06:40:42;;;;;;;9.55;2.50;;;10.20;99.90;;;;;;5027123;28;20257;-52
2023/03/24 06:43:08;;;;;;;15.50;2.78;;;10.30;99.90;;;;;;5025976;28;20116;-52
2023/03/24 06:45:33;;;;;;;8.55;2.33;;;10.30;99.90;;;;;;5025192;28;20037;-54
2023/03/24 06:47:59;;;;;;;12.55;3.20;;;10.30;99.90;;;;;;5024669;28;20457;-51
2023/03/24 06:50:26;;;;;;;10.88;2.40;;;10.30;99.90;;;;;;5025222;28;21489;-52
2023/03/24 06:52:52;;;;;;;15.65;2.72;;;10.40;99.90;;;;;;5025482;28;20045;-52
2023/03/24 06:55:18;;;;;;;11.77;2.65;;;10.40;99.90;;;;;;5024793;28;20038;-49
2023/03/24 06:57:44;;;;;;;10.85;2.17;;;10.40;99.90;;;;;;5022615;28;20199;-54
2023/03/24 07:00:10;;;;;;;11.88;2.50;;;10.50;99.90;;;;;;5026642;28;20478;-50
2023/03/24 07:02:37;;;;;;;11.35;2.28;;;10.50;99.90;;;;;;5023671;28;20045;-52
2023/03/24 07:05:08;;;;;;;10.55;2.40;;;10.70;99.90;;;;;;5024883;28;20052;-50
2023/03/24 07:07:34;;;;;;;13.25;2.88;;;10.70;99.90;;;;;;5022767;28;20060;-49
2023/03/24 07:10:01;;;;;;;13.50;2.85;;;10.70;99.90;;;;;;5024609;28;20391;-52
2023/03/24 07:12:26;;;;;;;9.75;2.55;;;10.70;99.90;;;;;;5024868;28;20041;-53
2023/03/24 07:14:52;;;;;;;13.10;2.85;;;10.70;99.90;;;;;;5024694;28;20041;-50
2023/03/24 07:17:18;;;;;;;12.48;2.72;;;10.70;99.90;;;;;;5025051;28;20041;-49
2023/03/24 07:19:44;;;;;;;10.07;2.45;;;10.70;99.90;;;;;;5025002;28;20052;-54
2023/03/24 07:22:10;;;;;;;11.85;2.78;;;10.70;99.90;;;;;;5017391;28;20128;-50
2023/03/24 07:24:36;;;;;;;12.18;2.75;;;10.70;99.90;;;;;;5029742;28;20131;-49
2023/03/24 07:27:02;;;;;;;11.32;2.60;;;10.70;99.90;;;;;;5023632;28;20049;-50
2023/03/24 07:29:28;;;;;;;12.20;2.78;;;10.70;99.90;;;;;;5025251;28;20048;-49
2023/03/24 07:31:57;;;;;;;18.58;3.20;;;10.70;99.90;;;;;;5027603;28;20415;-51
2023/03/24 07:34:23;;;;;;;12.73;2.65;;;10.60;99.90;;;;;;5031560;28;20052;-51
2023/03/24 07:36:49;;;;;;;10.82;3.00;;;10.60;99.90;;;;;;5024680;28;20082;-50
2023/03/24 07:39:15;;;;;;;12.35;2.45;;;10.60;99.90;;;;;;5023049;28;20049;-49
2023/03/24 07:41:41;;;;;;;15.00;2.67;;;10.60;99.90;;;;;;5023530;28;20041;-50
2023/03/24 07:44:07;;;;;;;11.60;2.72;;;10.60;99.90;;;;;;5031656;28;20388;-50
2023/03/24 07:46:33;;;;;;;16.55;3.65;;;10.60;99.90;;;;;;5023970;28;20049;-51
2023/03/24 07:48:58;;;;;;;16.55;3.33;;;10.70;99.90;;;;;;5023197;28;20099;-51
2023/03/24 07:51:24;;;;;;;19.48;3.65;;;10.70;99.90;;;;;;5024497;28;20172;-50
2023/03/24 07:53:50;;;;;;;21.42;4.30;;;10.80;99.90;;;;;;5023926;28;20033;-54
2023/03/24 07:56:16;;;;;;;17.42;3.47;;;;;;;;;;5006292;28;20064;-49
2023/03/24 07:58:41;;;;;;;17.42;3.72;;;10.90;99.90;;;;;;5025478;28;20038;-49
2023/03/24 08:01:09;;;;;;;17.48;3.65;;;11.20;99.90;;;;;;5027066;28;20763;-49
2023/03/24 08:03:35;;;;;;;19.63;3.80;;;11.30;99.90;;;;;;5028201;28;20061;-49
2023/03/24 08:06:02;;;;;;;16.92;3.55;;;11.20;99.90;;;;;;5023753;28;20049;-50
2023/03/24 08:08:28;;;;;;;17.67;3.53;;;11.30;99.90;;;;;;5022759;28;20124;-51
2023/03/24 08:10:53;;;;;;;20.20;3.47;;;11.30;99.90;;;;;;5023359;28;20175;-49
2023/03/24 08:13:19;;;;;;;19.98;3.92;;;11.30;99.90;;;;;;5022671;28;20504;-49
2023/03/24 08:15:45;;;;;;;20.55;4.13;;;11.30;99.90;;;;;;5022157;28;20046;-55
2023/03/24 08:18:10;;;;;;;18.88;4.00;;;11.40;99.90;;;;;;5020982;28;20068;-50
2023/03/24 08:20:36;;;;;;;14.15;3.65;;;11.50;99.90;;;;;;5017525;28;20416;-50
2023/03/24 08:23:03;;;;;;;14.57;3.80;;;11.90;99.90;;;;;;5012611;28;20037;-51
2023/03/24 08:25:30;;;;;;;16.35;3.67;;;;;;;;;;5024792;28;20052;-50
2023/03/24 08:27:55;;;;;;;17.55;3.78;;;12.30;99.90;;;;;;5023393;28;20131;-51
2023/03/24 08:30:23;;;;;;;14.82;3.60;;;12.50;99.90;;;;;;5027168;28;20061;-51
2023/03/24 08:32:55;;;;;;;18.45;3.70;;;12.70;99.90;;;;;;5025233;28;20125;-51
2023/03/24 08:35:24;;;;;;;15.93;3.97;;;12.90;99.90;;;;;;5038878;28;20192;-51
2023/03/24 08:37:50;;;;;;;17.13;4.30;;;13.10;99.90;;;;;;5022780;28;20421;-54
2023/03/24 08:40:19;;;;;;;12.55;3.60;;;13.10;99.90;;;;;;5017047;28;20060;-52
2023/03/24 08:42:52;;;;;;;14.32;3.10;;;13.30;99.90;;;;;;5040193;28;20046;-51
2023/03/24 08:45:20;;;;;;;14.88;3.83;;;13.40;99.90;;;;;;5022568;28;20101;-51
2023/03/24 08:47:47;;;;;;;17.45;3.95;;;13.40;99.90;;;;;;5027335;28;20458;-54
2023/03/24 08:50:17;;;;;;;15.02;3.50;;;13.20;99.90;;;;;;5028319;28;20048;-51
2023/03/24 08:52:46;;;;;;;15.48;3.92;;;13.20;99.90;;;;;;5031572;28;20044;-51
2023/03/24 08:55:13;;;;;;;15.45;3.45;;;13.50;99.90;;;;;;5046064;28;20038;-51
2023/03/24 08:57:39;;;;;;;13.23;3.72;;;13.50;99.90;;;;;;5042493;28;20116;-54
2023/03/24 09:00:13;;;;;;;16.65;3.88;;;13.70;99.90;;;;;;5031986;28;20132;-54
2023/03/24 09:02:39;;;;;;;13.07;3.65;;;13.60;99.90;;;;;;5036104;28;20038;-54
2023/03/24 09:05:05;;;;;;;12.07;2.83;;;13.80;99.90;;;;;;5025215;28;20168;-52
2023/03/24 09:07:31;;;;;;;11.38;2.88;;;13.80;99.90;;;;;;5025731;28;20072;-51
2023/03/24 09:09:56;;;;;;;14.52;3.05;;;13.80;99.90;;;;;;5024727;28;20034;-51
2023/03/24 09:12:22;;;;;;;15.70;4.00;;;14.00;99.90;;;;;;5039025;28;20091;-52
2023/03/24 09:14:49;;;;;;;12.25;3.00;;;13.90;99.90;;;;;;5032111;28;20076;-51
2023/03/24 09:17:15;;;;;;;11.65;2.97;;;14.00;99.90;;;;;;5034280;28;20041;-51
2023/03/24 09:19:41;;;;;;;12.93;2.42;;;13.70;99.90;;;;;;5035934;28;20091;-52
2023/03/24 09:22:07;;;;;;;13.05;2.90;;;13.60;99.90;;;;;;5027576;28;20037;-52
2023/03/24 09:24:32;;;;;;;11.98;3.00;;;13.90;99.90;;;;;;5029624;28;20044;-51
2023/03/24 09:26:58;;;;;;;11.85;2.70;;;14.00;99.90;;;;;;5033959;28;20541;-51
2023/03/24 09:29:24;;;;;;;9.52;2.67;;;14.10;99.90;;;;;;5033390;28;20033;-53
2023/03/24 09:31:52;;;;;;;14.20;3.10;;;13.90;99.90;;;;;;5034891;28;20548;-51
2023/03/24 09:34:19;;;;;;;8.43;2.83;;;13.80;99.90;;;;;;5028843;28;20403;-51
2023/03/24 09:36:45;;;;;;;12.98;3.20;;;14.00;99.90;;;;;;5030724;28;20402;-51
2023/03/24 09:39:10;;;;;;;10.32;2.67;;;14.20;99.90;;;;;;5029857;28;20072;-51
2023/03/24 09:41:36;;;;;;;9.55;2.58;;;14.30;99.90;;;;;;5023563;28;20045;-51
2023/03/24 09:44:20;;;;;;;11.98;2.50;;;14.30;99.90;;;;;;5025800;28;20041;-49
2023/03/24 09:47:24;;;;;;;12.05;2.72;;;14.50;99.90;;;;;;5021070;28;20477;-53
2023/03/24 09:52:41;;;;;;;13.95;3.17;;;14.70;99.90;;;;;;4773824;26;20084;-51
2023/03/24 09:55:15;;;;;;;12.43;3.20;;;14.70;99.90;;;;;;5024587;28;20059;-51
2023/03/24 09:57:45;;;;;;;12.82;2.90;;;14.70;99.90;;;;;;5026164;28;20041;-53
2023/03/24 10:00:25;;;;;;;10.68;2.20;;;14.50;99.90;;;;;;5024813;28;20046;-52
2023/03/24 10:02:51;;;;;;;12.63;2.85;;;14.50;99.90;;;;;;5026546;28;20033;-53
2023/03/24 10:05:25;;;;;;;8.13;2.70;;;14.60;99.90;;;;;;5022642;28;20041;-51
2023/03/24 10:08:25;;;;;;;14.52;2.65;;;14.50;99.90;;;;;;5029676;28;20499;-52
2023/03/24 10:10:56;;;;;;;7.82;2.00;;;14.40;99.90;;;;;;5032550;28;20041;-51
2023/03/24 10:13:48;;;;;;;11.93;2.65;;;14.80;99.90;;;;;;5029215;28;20049;-50
2023/03/24 10:16:35;;;;;;;10.65;2.70;;;15.10;99.90;;;;;;4990179;28;20049;-54
2023/03/24 10:19:20;;;;;;;10.50;2.30;;;15.30;99.90;;;;;;5012842;28;20498;-52
2023/03/24 10:21:55;;;;;;;10.25;2.97;;;;;;;;;;5012655;28;20057;-49
2023/03/24 10:24:46;;;;;;;11.98;3.15;;;15.40;99.90;;;;;;5025947;28;20085;-50
2023/03/24 10:27:26;;;;;;;12.18;2.53;;;15.50;99.90;;;;;;5013601;28;20038;-50
2023/03/24 10:29:56;;;;;;;8.63;2.63;;;15.60;99.90;;;;;;5021671;28;20391;-51
2023/03/24 10:32:28;;;;;;;13.73;2.50;;;15.70;99.90;;;;;;5022427;28;20038;-53
2023/03/24 10:34:59;;;;;;;10.57;2.30;;;15.60;99.90;;;;;;5006610;28;20073;-51
2023/03/24 10:37:27;;;;;;;13.15;2.85;;;15.50;99.90;;;;;;5010436;28;20046;-50
2023/03/24 10:39:53;;;;;;;10.93;2.40;;;15.30;99.90;;;;;;5015867;28;20045;-49
2023/03/24 10:42:24;;;;;;;10.98;2.60;;;15.50;99.90;;;;;;5019990;28;20037;-50
2023/03/24 10:44:51;;;;;;;8.95;2.15;;;15.50;99.90;;;;;;5024071;28;20094;-51
2023/03/24 10:47:24;;;;;;;9.70;2.55;;;15.70;99.90;;;;;;5017411;28;20046;-51
2023/03/24 10:49:59;;;;;;;8.80;2.00;;;15.80;99.90;;;;;;5012179;28;20427;-55
2023/03/24 10:52:26;;;;;;;10.88;2.58;;;16.00;99.90;;;;;;5022386;28;20072;-53
2023/03/24 10:55:05;;;;;;;11.13;2.67;;;16.00;99.90;;;;;;5025658;28;20497;-53
2023/03/24 10:57:31;;;;;;;9.18;2.10;;;16.00;99.90;;;;;;5005967;28;20108;-50
2023/03/24 11:00:00;;;;;;;10.20;3.03;;;16.10;99.90;;;;;;5020794;28;20060;-50
2023/03/24 11:02:29;;;;;;;11.30;2.67;;;16.30;99.90;;;;;;5010290;28;20072;-50
2023/03/24 11:05:04;;;;;;;8.63;1.85;;;16.10;99.90;;;;;;5011912;28;20041;-52
2023/03/24 11:07:41;;;;;;;8.35;2.00;;;16.00;99.90;;;;;;5004243;28;20060;-50
2023/03/24 11:10:09;;;;;;;11.32;2.45;;;16.00;99.90;;;;;;5013213;28;20095;-50
2023/03/24 11:12:41;;;;;;;10.90;2.13;;;16.10;99.90;;;;;;4984752;28;20355;-50
2023/03/24 11:15:19;;;;;;;8.45;1.80;;;16.30;99.90;;;;;;5011812;28;20046;-50
2023/03/24 11:17:46;;;;;;;9.88;2.10;;;16.60;99.90;;;;;;4996897;28;20403;-51
2023/03/24 11:20:28;;;;;;;9.13;2.45;;;16.80;99.90;;;;;;5012259;28;20049;-50
2023/03/24 11:23:00;;;;;;;8.57;2.15;;;16.80;99.90;;;;;;5005709;28;20046;-52
2023/03/24 11:25:31;;;;;;;9.55;2.30;;;16.70;99.90;;;;;;5002220;28;20046;-50
2023/03/24 11:28:01;;;;;;;8.35;2.03;;;16.60;99.90;;;;;;5011134;28;20056;-50
2023/03/24 11:30:32;;;;;;;9.73;2.72;;;16.50;99.90;;;;;;5012201;28;20436;-49
2023/03/24 11:32:58;;;;;;;11.10;2.40;;;16.50;99.90;;;;;;5013127;28;20041;-49
2023/03/24 11:35:24;;;;;;;9.98;2.65;;;16.00;99.90;;;;;;5023590;28;20046;-49
2023/03/24 11:37:50;;;;;;;11.20;2.85;;;15.90;99.90;;;;;;4978829;28;20348;-49
2023/03/24 11:40:23;;;;;;;13.07;2.83;;;15.70;99.90;;;;;;4995269;28;20494;-49
2023/03/24 11:42:59;;;;;;;10.50;2.40;;;15.40;99.90;;;;;;5014332;28;20522;-50
2023/03/24 11:45:27;;;;;;;11.32;2.22;;;15.30;99.90;;;;;;4994324;28;20159;-49
2023/03/24 11:47:58;;;;;;;12.38;2.83;;;15.60;99.90;;;;;;5010825;28;20050;-49
2023/03/24 11:50:31;;;;;;;9.68;2.67;;;15.90;99.90;;;;;;5019439;28;20041;-50
2023/03/24 11:53:09;;;;;;;8.13;2.15;;;16.10;99.90;;;;;;5017453;28;20045;-48
2023/03/24 11:55:48;;;;;;;7.53;1.90;;;15.90;99.90;;;;;;5011219;28;20034;-49
2023/03/24 11:58:30;;;;;;;9.18;2.05;;;15.80;99.90;;;;;;5004091;28;20057;-48
2023/03/24 12:01:04;;;;;;;10.02;2.10;;;15.60;99.90;;;;;;5012484;28;20049;-51
2023/03/24 12:04:10;;;;;;;7.88;2.35;;;15.60;99.90;;;;;;5013653;28;20045;-50
2023/03/24 12:06:54;;;;;;;7.55;2.45;;;16.10;99.90;;;;;;4990503;28;20072;-49
2023/03/24 12:09:31;;;;;;;7.13;1.90;;;16.30;99.90;;;;;;5011822;28;20042;-49
2023/03/24 12:12:20;;;;;;;7.47;2.53;;;16.60;99.90;;;;;;5010090;28;20116;-49
2023/03/24 12:15:17;;;;;;;8.63;2.40;;;17.00;99.90;;;;;;5003655;28;20104;-52
2023/03/24 12:18:13;;;;;;;10.20;2.20;;;17.10;99.90;;;;;;5004738;28;20057;-51
2023/03/24 12:20:42;;;;;;;10.02;2.60;;;16.50;99.90;;;;;;5013189;28;20060;-50
2023/03/24 12:23:27;;;;;;;7.05;2.05;;;16.40;99.90;;;;;;4991669;28;20483;-51
2023/03/24 12:26:18;;;;;;;8.23;2.10;;;15.90;99.90;;;;;;5005811;28;20053;-50
2023/03/24 12:28:53;;;;;;;8.10;2.25;;;15.60;99.90;;;;;;4993799;28;20041;-51
2023/03/24 12:31:56;;;;;;;9.98;2.03;;;15.10;99.90;;;;;;5006591;28;20192;-50
2023/03/24 12:34:31;;;;;;;6.57;1.98;;;15.00;99.90;;;;;;5000710;28;20053;-55
2023/03/24 12:37:05;;;;;;;9.15;2.03;;;15.10;99.90;;;;;;5009292;28;20498;-50
2023/03/24 12:39:36;;;;;;;6.78;2.00;;;15.20;99.90;;;;;;5008142;28;20037;-51
2023/03/24 12:42:11;;;;;;;9.80;2.33;;;15.10;99.90;;;;;;5004198;28;20498;-50
2023/03/24 12:44:55;;;;;;;8.75;2.00;;;15.10;99.90;;;;;;5002020;28;20495;-50
2023/03/24 12:47:20;;;;;;;9.43;2.40;;;14.90;99.90;;;;;;4984680;28;20097;-49
2023/03/24 12:50:08;;;;;;;8.50;2.00;;;14.90;99.90;;;;;;4969874;28;20049;-50
2023/03/24 12:52:39;;;;;;;8.13;1.83;;;14.80;99.90;;;;;;5001003;28;20135;-51
2023/03/24 12:55:13;;;;;;;13.18;2.42;;;14.60;99.90;;;;;;5004580;28;20471;-51
2023/03/24 12:57:45;;;;;;;11.35;2.60;;;14.50;99.90;;;;;;4987010;28;20046;-53
2023/03/24 13:00:23;;;;;;;12.70;2.28;;;14.60;99.90;;;;;;5002745;28;20568;-52
2023/03/24 13:02:56;;;;;;;11.90;2.30;;;14.50;99.90;;;;;;5002789;28;20078;-50
2023/03/24 13:05:36;;;;;;;11.63;2.53;;;14.40;99.90;;;;;;5004219;28;20049;-52
2023/03/24 13:08:10;;;;;;;12.50;2.60;;;14.30;99.90;;;;;;5004253;28;20092;-49
2023/03/24 13:10:41;;;;;;;9.80;2.53;;;14.20;99.90;;;;;;4984282;28;20058;-49